Time;durP1;ratioP1;P1;durP2;ratioP2;P2;SDS_P1;SDS_P2;PMS_P1;PMS_P2;Temp;Humidity;BMP_temperature;BMP_pressure;BME280_temperature;BME280_humidity;BME280_pressure;Samples;Min_cycle;Max_cycle;Signal;HPM_P1;HPM_P2
2023/06/02 00:01:02;;;;;;;14.60;3.17;;;10.70;99.90;;;;;;5083850;28;21002;-78
2023/06/02 00:03:33;;;;;;;14.48;3.70;;;10.60;99.90;;;;;;5066372;28;20437;-75
2023/06/02 00:06:05;;;;;;;16.75;5.20;;;10.70;99.90;;;;;;5086438;28;20423;-77
2023/06/02 00:08:32;;;;;;;14.93;3.67;;;10.70;99.90;;;;;;5082458;28;20429;-77
2023/06/02 00:10:58;;;;;;;14.73;3.72;;;10.60;99.90;;;;;;5076112;28;20419;-77
2023/06/02 00:13:23;;;;;;;18.63;4.55;;;10.90;99.90;;;;;;5075239;28;20440;-78
2023/06/02 00:15:49;;;;;;;19.38;3.75;;;10.70;99.90;;;;;;5057336;28;20417;-76
2023/06/02 00:18:15;;;;;;;14.77;3.88;;;10.70;99.90;;;;;;5086936;28;20911;-78
2023/06/02 00:20:41;;;;;;;14.48;3.42;;;10.80;99.90;;;;;;5086057;28;20402;-76
2023/06/02 00:23:09;;;;;;;12.80;2.90;;;10.60;99.90;;;;;;5071940;28;20417;-76
2023/06/02 00:25:39;;;;;;;17.90;3.83;;;10.70;99.90;;;;;;5089113;28;20538;-76
2023/06/02 00:28:05;;;;;;;17.70;3.60;;;10.70;99.90;;;;;;5053714;28;20477;-76
2023/06/02 00:30:31;;;;;;;14.10;2.85;;;10.70;99.90;;;;;;5080977;28;20488;-76
2023/06/02 00:32:58;;;;;;;15.68;3.08;;;10.70;99.90;;;;;;5067030;28;20933;-78
2023/06/02 00:35:25;;;;;;;16.80;3.97;;;10.70;99.90;;;;;;5078990;28;20795;-78
2023/06/02 00:37:51;;;;;;;15.73;3.22;;;10.70;99.90;;;;;;5082947;28;20414;-77
2023/06/02 00:40:17;;;;;;;18.77;4.45;;;10.80;99.90;;;;;;5071736;28;20974;-76
2023/06/02 00:42:43;;;;;;;13.15;3.25;;;10.70;99.90;;;;;;5076107;28;20412;-77
2023/06/02 00:45:09;;;;;;;12.97;2.83;;;10.80;99.90;;;;;;5070689;28;20501;-77
2023/06/02 00:47:35;;;;;;;17.27;3.25;;;10.80;99.90;;;;;;5067109;28;20506;-77
2023/06/02 00:50:00;;;;;;;14.52;3.40;;;10.80;99.90;;;;;;5078136;28;20823;-77
2023/06/02 00:52:27;;;;;;;16.92;3.83;;;10.80;99.90;;;;;;5078063;28;20415;-78
2023/06/02 00:54:53;;;;;;;14.50;4.25;;;10.70;99.90;;;;;;5066817;28;20431;-76
2023/06/02 00:57:19;;;;;;;18.63;4.40;;;10.80;99.90;;;;;;5066776;28;20930;-79
2023/06/02 00:59:45;;;;;;;17.42;2.63;;;10.80;99.90;;;;;;5080273;28;20887;-77
2023/06/02 01:02:11;;;;;;;11.02;2.50;;;10.80;99.90;;;;;;5078179;28;20470;-77
2023/06/02 01:04:40;;;;;;;16.05;3.30;;;10.70;99.90;;;;;;5064819;28;20418;-77
2023/06/02 01:07:07;;;;;;;13.63;3.60;;;10.70;99.90;;;;;;5085735;28;20406;-77
2023/06/02 01:09:34;;;;;;;13.80;3.00;;;10.70;99.90;;;;;;5098366;28;20424;-78
2023/06/02 01:12:01;;;;;;;13.47;3.50;;;10.70;99.90;;;;;;5100143;28;20416;-76
2023/06/02 01:14:27;;;;;;;14.73;3.47;;;10.80;99.90;;;;;;5048292;28;20437;-76
2023/06/02 01:16:53;;;;;;;13.27;3.30;;;10.80;99.90;;;;;;5083052;28;20420;-77
2023/06/02 01:19:25;;;;;;;14.63;3.58;;;10.80;99.90;;;;;;5068300;28;20506;-78
2023/06/02 01:21:59;;;;;;;14.63;3.30;;;10.80;99.90;;;;;;5075791;28;20455;-78
2023/06/02 01:24:47;;;;;;;13.13;2.80;;;10.70;99.90;;;;;;5074761;28;20430;-77
2023/06/02 01:27:12;;;;;;;13.23;3.00;;;10.70;99.90;;;;;;5076988;28;20451;-77
2023/06/02 01:29:39;;;;;;;14.85;2.95;;;10.80;99.90;;;;;;5083769;28;20448;-77
2023/06/02 01:32:24;;;;;;;14.65;3.22;;;10.80;99.90;;;;;;5075741;28;20909;-77
2023/06/02 01:34:59;;;;;;;14.80;3.60;;;10.80;99.90;;;;;;5068844;28;21050;-78
2023/06/02 01:37:28;;;;;;;13.68;3.08;;;10.80;99.90;;;;;;5086941;28;20438;-77
2023/06/02 01:39:54;;;;;;;14.63;3.03;;;10.70;99.90;;;;;;5101476;28;20430;-76
2023/06/02 01:42:21;;;;;;;15.15;3.63;;;10.60;99.90;;;;;;5085744;28;20489;-78
2023/06/02 01:44:48;;;;;;;13.30;3.47;;;10.70;99.90;;;;;;5083219;28;20438;-78
2023/06/02 01:47:14;;;;;;;13.02;3.17;;;10.70;99.90;;;;;;5084147;28;20418;-77
2023/06/02 01:49:40;;;;;;;12.32;3.35;;;10.70;99.90;;;;;;5083364;28;20430;-77
2023/06/02 01:52:06;;;;;;;13.67;3.50;;;10.70;99.90;;;;;;5090385;28;20824;-77
2023/06/02 01:54:31;;;;;;;19.35;4.07;;;10.70;99.90;;;;;;5084272;28;20434;-77
2023/06/02 01:56:57;;;;;;;14.00;3.13;;;10.60;99.90;;;;;;5070160;28;20461;-78
2023/06/02 01:59:22;;;;;;;13.18;3.20;;;10.60;99.90;;;;;;5084118;28;20502;-76
2023/06/02 02:01:48;;;;;;;18.58;4.65;;;10.70;99.90;;;;;;5087522;28;20497;-77
2023/06/02 02:04:14;;;;;;;16.80;3.77;;;10.80;99.90;;;;;;5089115;28;20513;-77
2023/06/02 02:06:42;;;;;;;17.65;3.65;;;10.80;99.90;;;;;;5081325;28;20848;-75
2023/06/02 02:09:07;;;;;;;15.77;4.38;;;10.80;99.90;;;;;;5076311;28;20433;-76
2023/06/02 02:11:34;;;;;;;13.10;3.10;;;10.80;99.90;;;;;;5085388;28;20775;-78
2023/06/02 02:14:04;;;;;;;15.82;3.55;;;10.70;99.90;;;;;;5077918;28;20431;-77
2023/06/02 02:16:30;;;;;;;18.17;4.03;;;10.90;99.90;;;;;;5065026;28;20495;-76
2023/06/02 02:18:56;;;;;;;15.10;3.53;;;10.80;99.90;;;;;;5088816;28;20493;-77
2023/06/02 02:21:22;;;;;;;18.52;4.22;;;10.70;99.90;;;;;;5081347;28;20833;-77
2023/06/02 02:23:48;;;;;;;15.98;3.45;;;10.70;99.90;;;;;;5078714;28;20778;-77
2023/06/02 02:26:13;;;;;;;15.13;3.38;;;10.70;99.90;;;;;;5072572;28;20493;-77
2023/06/02 02:28:39;;;;;;;16.08;3.80;;;10.80;99.90;;;;;;5084979;28;21202;-78
2023/06/02 02:31:05;;;;;;;15.80;4.20;;;10.70;99.90;;;;;;5087572;28;20832;-77
2023/06/02 02:33:31;;;;;;;17.48;4.00;;;10.60;99.90;;;;;;5076513;28;20431;-77
2023/06/02 02:35:56;;;;;;;14.43;3.90;;;10.70;99.90;;;;;;5063015;28;20475;-76
2023/06/02 02:38:22;;;;;;;15.32;3.67;;;10.70;99.90;;;;;;5071925;28;20827;-76
2023/06/02 02:40:48;;;;;;;16.80;4.00;;;10.80;99.90;;;;;;5052592;28;20410;-78
2023/06/02 02:43:15;;;;;;;19.30;4.50;;;10.80;99.90;;;;;;5074053;28;20945;-77
2023/06/02 02:45:41;;;;;;;20.25;4.53;;;10.80;99.90;;;;;;5088078;28;20452;-77
2023/06/02 02:48:07;;;;;;;13.65;3.78;;;10.80;99.90;;;;;;5078229;28;20445;-78
2023/06/02 02:50:33;;;;;;;12.57;3.42;;;10.60;99.90;;;;;;5082855;28;20800;-77
2023/06/02 02:52:59;;;;;;;21.93;4.50;;;10.70;99.90;;;;;;5069157;28;20502;-76
2023/06/02 02:55:25;;;;;;;16.77;4.50;;;10.70;99.90;;;;;;5069484;28;20455;-77
2023/06/02 02:57:51;;;;;;;16.65;3.72;;;10.70;99.90;;;;;;5068546;28;20905;-77
2023/06/02 03:00:17;;;;;;;19.42;4.10;;;10.80;99.90;;;;;;5081627;28;20433;-77
2023/06/02 03:02:43;;;;;;;17.52;3.67;;;10.70;99.90;;;;;;5057613;28;20417;-77
2023/06/02 03:05:10;;;;;;;16.27;3.50;;;10.70;99.90;;;;;;5088610;28;20458;-77
2023/06/02 03:07:39;;;;;;;19.13;3.88;;;10.70;99.90;;;;;;5073515;28;20424;-77
2023/06/02 03:10:06;;;;;;;18.98;3.75;;;10.70;99.90;;;;;;5079864;28;20757;-77
2023/06/02 03:12:32;;;;;;;15.80;4.63;;;10.70;99.90;;;;;;5085149;28;20429;-78
2023/06/02 03:14:58;;;;;;;16.25;3.83;;;10.70;99.90;;;;;;5071737;28;20430;-76
2023/06/02 03:17:24;;;;;;;17.00;4.85;;;10.70;99.90;;;;;;5085869;28;20818;-77
2023/06/02 03:19:50;;;;;;;21.85;4.78;;;10.70;99.90;;;;;;5086631;28;20545;-76
2023/06/02 03:22:15;;;;;;;13.20;3.43;;;10.80;99.90;;;;;;5077741;28;20414;-76
2023/06/02 03:24:41;;;;;;;16.50;3.90;;;10.70;99.90;;;;;;5088153;28;20734;-77
2023/06/02 03:27:13;;;;;;;15.20;3.83;;;10.70;99.90;;;;;;5084706;28;22221;-77
2023/06/02 03:29:44;;;;;;;15.20;3.97;;;10.70;99.90;;;;;;5087218;28;20410;-77
2023/06/02 03:32:11;;;;;;;13.43;3.53;;;10.80;99.90;;;;;;5048473;28;20425;-78
2023/06/02 03:34:39;;;;;;;13.52;3.35;;;10.80;99.90;;;;;;5088376;28;20439;-77
2023/06/02 03:37:05;;;;;;;15.75;4.00;;;10.70;99.90;;;;;;5103808;28;20400;-77
2023/06/02 03:39:31;;;;;;;14.07;4.13;;;10.80;99.90;;;;;;5067247;28;20553;-78
2023/06/02 03:41:57;;;;;;;15.68;3.53;;;10.80;99.90;;;;;;5075583;28;20493;-77
2023/06/02 03:44:22;;;;;;;18.90;4.47;;;10.70;99.90;;;;;;5080419;28;20422;-78
2023/06/02 03:46:48;;;;;;;19.80;4.53;;;10.70;99.90;;;;;;5086381;28;20418;-77
2023/06/02 03:49:13;;;;;;;12.65;2.85;;;10.70;99.90;;;;;;5080995;28;20429;-77
2023/06/02 03:51:42;;;;;;;17.92;3.92;;;10.80;99.90;;;;;;5069851;28;20415;-79
2023/06/02 03:54:08;;;;;;;21.90;4.50;;;10.70;99.90;;;;;;5067579;28;21079;-78
2023/06/02 03:56:34;;;;;;;19.55;3.95;;;10.80;99.90;;;;;;5067482;28;20483;-77
2023/06/02 03:59:00;;;;;;;18.55;4.05;;;10.80;99.90;;;;;;5082265;28;20429;-76
2023/06/02 04:01:26;;;;;;;20.23;4.32;;;10.80;99.90;;;;;;5084395;28;20421;-77
2023/06/02 04:03:51;;;;;;;17.77;3.28;;;10.80;99.90;;;;;;5077067;28;20477;-77
2023/06/02 04:06:17;;;;;;;15.52;3.70;;;10.80;99.90;;;;;;5069533;28;20930;-78
2023/06/02 04:08:45;;;;;;;15.95;4.88;;;10.80;99.90;;;;;;5069545;28;20424;-77
2023/06/02 04:11:10;;;;;;;23.75;5.00;;;10.90;99.90;;;;;;5080629;28;20849;-78
2023/06/02 04:13:36;;;;;;;21.23;5.53;;;11.00;99.90;;;;;;5083645;28;20428;-76
2023/06/02 04:16:02;;;;;;;19.10;3.57;;;11.10;99.90;;;;;;5086469;28;20451;-77
2023/06/02 04:18:30;;;;;;;21.67;4.03;;;10.90;99.90;;;;;;5081715;28;20555;-76
2023/06/02 04:20:55;;;;;;;15.73;4.20;;;11.00;99.90;;;;;;5094348;28;20420;-78
2023/06/02 04:23:21;;;;;;;15.07;3.47;;;11.00;99.90;;;;;;5081809;28;20417;-76
2023/06/02 04:25:47;;;;;;;13.88;3.78;;;11.00;99.90;;;;;;5084437;28;20410;-76
2023/06/02 04:28:13;;;;;;;18.70;3.93;;;11.10;99.90;;;;;;5085710;28;20426;-77
2023/06/02 04:30:39;;;;;;;22.53;4.30;;;11.10;99.90;;;;;;5068642;28;20410;-78
2023/06/02 04:33:05;;;;;;;21.77;3.88;;;11.00;99.90;;;;;;5076690;28;20511;-76
2023/06/02 04:35:30;;;;;;;15.95;3.90;;;11.20;99.90;;;;;;5084237;28;20513;-77
2023/06/02 04:37:56;;;;;;;19.20;3.67;;;11.10;99.90;;;;;;5084294;28;20402;-77
2023/06/02 04:40:22;;;;;;;15.53;4.53;;;11.10;99.90;;;;;;5094089;28;20420;-77
2023/06/02 04:42:48;;;;;;;18.93;4.27;;;11.10;99.90;;;;;;5077789;28;20426;-78
2023/06/02 04:45:16;;;;;;;17.83;3.73;;;11.20;99.90;;;;;;5085514;28;20830;-77
2023/06/02 04:47:42;;;;;;;19.25;5.95;;;11.20;99.90;;;;;;5083755;28;21046;-78
2023/06/02 04:50:09;;;;;;;14.48;3.50;;;11.30;99.90;;;;;;5085883;28;20446;-77
2023/06/02 04:52:38;;;;;;;24.30;3.88;;;11.10;99.90;;;;;;5083670;28;20833;-77
2023/06/02 04:55:07;;;;;;;16.58;5.35;;;11.30;99.90;;;;;;5083052;28;20429;-75
2023/06/02 04:57:33;;;;;;;24.60;5.35;;;11.20;99.90;;;;;;5070699;28;20498;-77
2023/06/02 04:59:58;;;;;;;18.33;3.93;;;11.30;99.90;;;;;;5079801;28;20427;-77
2023/06/02 05:02:24;;;;;;;21.93;4.67;;;11.20;99.90;;;;;;5076769;28;20914;-76
2023/06/02 05:04:50;;;;;;;14.10;3.70;;;11.20;99.90;;;;;;5075137;28;20483;-76
2023/06/02 05:07:16;;;;;;;13.63;3.13;;;11.20;99.90;;;;;;5067613;28;20558;-75
2023/06/02 05:09:41;;;;;;;18.93;4.30;;;11.30;99.90;;;;;;5077038;28;20846;-76
2023/06/02 05:12:08;;;;;;;16.47;4.03;;;11.30;99.90;;;;;;5072030;28;21643;-76
2023/06/02 05:14:34;;;;;;;19.27;4.30;;;11.40;99.90;;;;;;5076190;28;20447;-76
2023/06/02 05:17:00;;;;;;;15.95;4.38;;;11.50;99.90;;;;;;5053070;28;20445;-76
2023/06/02 05:19:26;;;;;;;17.47;4.63;;;11.60;99.90;;;;;;5082571;28;21147;-76
2023/06/02 05:21:51;;;;;;;16.50;4.87;;;11.50;99.90;;;;;;5080627;28;20743;-76
2023/06/02 05:24:17;;;;;;;21.73;4.67;;;11.50;99.90;;;;;;5081549;28;20425;-76
2023/06/02 05:26:43;;;;;;;26.10;6.10;;;11.50;99.90;;;;;;5085356;28;20429;-75
2023/06/02 05:29:08;;;;;;;19.55;5.32;;;11.30;99.90;;;;;;5072243;28;20480;-75
2023/06/02 05:31:34;;;;;;;21.75;5.53;;;11.50;99.90;;;;;;5084013;28;20844;-75
2023/06/02 05:34:00;;;;;;;25.27;4.67;;;11.50;99.90;;;;;;5084076;28;20424;-76
2023/06/02 05:36:25;;;;;;;22.43;4.93;;;11.60;99.90;;;;;;5074537;28;20476;-76
2023/06/02 05:38:51;;;;;;;20.17;4.83;;;11.70;99.90;;;;;;5069918;28;20418;-75
2023/06/02 05:41:17;;;;;;;32.63;6.27;;;11.70;99.90;;;;;;5081497;28;20420;-76
2023/06/02 05:43:43;;;;;;;21.63;6.23;;;11.70;99.90;;;;;;5088474;28;20416;-77
2023/06/02 05:46:09;;;;;;;19.87;4.80;;;11.80;99.90;;;;;;5060002;28;20433;-75
2023/06/02 05:48:34;;;;;;;21.57;5.23;;;11.70;99.90;;;;;;5068330;28;20404;-76
2023/06/02 05:51:00;;;;;;;19.00;5.20;;;11.70;99.90;;;;;;5067264;28;20505;-77
2023/06/02 05:53:25;;;;;;;16.95;3.65;;;11.80;99.90;;;;;;5086502;28;20421;-75
2023/06/02 05:55:51;;;;;;;24.25;6.07;;;11.70;99.90;;;;;;5075846;28;20420;-78
2023/06/02 05:58:19;;;;;;;23.95;4.50;;;11.80;99.90;;;;;;5081354;28;21179;-76
2023/06/02 06:00:45;;;;;;;17.65;4.78;;;11.80;99.90;;;;;;5050138;28;20470;-76
2023/06/02 06:03:13;;;;;;;23.27;5.18;;;11.80;99.90;;;;;;5088764;28;20429;-76
2023/06/02 06:05:39;;;;;;;21.67;5.43;;;11.90;99.90;;;;;;5068221;28;20430;-77
2023/06/02 06:08:05;;;;;;;19.98;4.20;;;12.00;99.90;;;;;;5069208;28;20431;-76
2023/06/02 06:10:30;;;;;;;29.20;5.63;;;12.00;99.90;;;;;;5051806;28;20508;-76
2023/06/02 06:12:56;;;;;;;24.35;4.65;;;12.10;99.90;;;;;;5084605;28;20425;-75
2023/06/02 06:15:22;;;;;;;25.25;5.30;;;12.10;99.90;;;;;;5095750;28;20762;-76
2023/06/02 06:17:51;;;;;;;24.87;4.80;;;12.20;99.90;;;;;;5087518;28;20425;-76
2023/06/02 06:20:20;;;;;;;24.95;5.55;;;12.20;99.90;;;;;;5084724;28;20436;-76
2023/06/02 06:22:46;;;;;;;20.38;5.03;;;12.30;99.90;;;;;;5084706;28;20430;-75
2023/06/02 06:25:12;;;;;;;21.83;4.90;;;12.40;99.90;;;;;;5051661;28;20486;-75
2023/06/02 06:27:39;;;;;;;25.20;5.28;;;12.40;99.90;;;;;;5071144;28;20420;-75
2023/06/02 06:30:05;;;;;;;20.20;4.88;;;12.50;99.90;;;;;;5077332;28;20450;-76
2023/06/02 06:32:31;;;;;;;24.48;5.88;;;12.60;99.90;;;;;;5086584;28;20430;-76
2023/06/02 06:34:58;;;;;;;20.02;4.53;;;12.60;99.90;;;;;;5079825;28;20468;-74
2023/06/02 06:37:24;;;;;;;18.73;4.18;;;12.60;99.90;;;;;;5087814;28;20398;-75
2023/06/02 06:39:50;;;;;;;25.80;5.50;;;12.60;99.90;;;;;;5080908;28;21015;-75
2023/06/02 06:42:16;;;;;;;25.60;5.80;;;12.70;99.90;;;;;;5071914;28;20492;-76
2023/06/02 06:44:41;;;;;;;23.00;5.63;;;12.80;99.90;;;;;;5070512;28;20570;-75
2023/06/02 06:47:07;;;;;;;24.17;5.20;;;12.90;99.90;;;;;;5076769;28;20525;-74
2023/06/02 06:49:33;;;;;;;21.90;4.75;;;12.90;99.90;;;;;;5068443;28;20424;-76
2023/06/02 06:51:58;;;;;;;20.15;5.10;;;12.70;99.90;;;;;;5067158;28;20425;-75
2023/06/02 06:54:24;;;;;;;25.10;6.68;;;12.60;99.90;;;;;;5076890;28;20465;-75
2023/06/02 06:56:50;;;;;;;23.23;5.93;;;12.80;99.90;;;;;;5083327;28;20425;-74
2023/06/02 06:59:15;;;;;;;30.13;6.63;;;12.80;99.90;;;;;;5059528;28;20525;-75
2023/06/02 07:01:43;;;;;;;22.10;5.05;;;12.90;99.90;;;;;;5070511;28;20412;-76
2023/06/02 07:04:09;;;;;;;23.33;5.50;;;12.90;99.90;;;;;;5069176;28;20435;-75
2023/06/02 07:06:36;;;;;;;22.38;5.65;;;13.00;99.90;;;;;;5063098;28;20555;-76
2023/06/02 07:09:02;;;;;;;22.90;5.77;;;13.00;99.90;;;;;;5055780;28;20911;-75
2023/06/02 07:11:28;;;;;;;22.83;5.22;;;13.10;99.90;;;;;;5052525;28;20398;-75
2023/06/02 07:13:54;;;;;;;24.67;5.63;;;12.90;99.90;;;;;;5097581;28;20514;-74
2023/06/02 07:16:21;;;;;;;21.93;6.60;;;13.20;99.90;;;;;;5088327;28;20430;-76
2023/06/02 07:18:47;;;;;;;19.73;5.28;;;13.40;99.90;;;;;;5105160;28;20559;-76
2023/06/02 07:21:13;;;;;;;26.85;6.60;;;13.30;99.90;;;;;;5080728;28;20417;-76
2023/06/02 07:23:38;;;;;;;24.42;6.05;;;13.40;99.90;;;;;;5058217;28;20435;-76
2023/06/02 07:26:04;;;;;;;23.53;5.97;;;13.30;99.90;;;;;;5075113;28;20433;-76
2023/06/02 07:28:30;;;;;;;23.63;6.47;;;13.70;99.90;;;;;;5081019;28;20420;-76
2023/06/02 07:30:56;;;;;;;23.35;6.18;;;13.90;99.90;;;;;;5082103;28;20413;-76
2023/06/02 07:33:22;;;;;;;18.80;4.77;;;14.10;99.90;;;;;;5083431;28;20435;-76
2023/06/02 07:35:48;;;;;;;25.75;5.35;;;15.30;99.90;;;;;;5057451;28;20808;-79
2023/06/02 07:38:13;;;;;;;25.73;5.60;;;15.40;99.90;;;;;;5049824;28;20489;-76
2023/06/02 07:40:39;;;;;;;23.83;5.73;;;14.50;99.90;;;;;;5052829;28;20427;-77
2023/06/02 07:43:05;;;;;;;18.13;4.72;;;15.40;99.90;;;;;;5060543;28;20826;-76
2023/06/02 07:45:31;;;;;;;23.02;5.32;;;15.50;99.90;;;;;;5048764;28;20485;-75
2023/06/02 07:47:56;;;;;;;18.45;4.68;;;14.70;99.90;;;;;;5051570;28;20747;-76
2023/06/02 07:50:22;;;;;;;20.58;4.57;;;14.80;99.90;;;;;;5063932;28;20787;-77
2023/06/02 07:52:48;;;;;;;17.50;4.30;;;14.60;99.90;;;;;;5085009;28;20416;-76
2023/06/02 07:55:14;;;;;;;23.93;5.70;;;14.40;99.90;;;;;;5094155;28;20922;-74
2023/06/02 07:57:40;;;;;;;20.10;4.50;;;14.40;99.90;;;;;;5084990;28;20489;-75
2023/06/02 08:00:15;;;;;;;15.68;3.90;;;14.70;99.90;;;;;;5050521;28;20421;-75
2023/06/02 08:02:46;;;;;;;18.73;4.13;;;15.00;99.90;;;;;;5081000;28;20479;-75
2023/06/02 08:05:16;;;;;;;17.60;5.15;;;14.70;99.90;;;;;;5072921;28;20420;-74
2023/06/02 08:07:43;;;;;;;21.35;4.40;;;14.80;99.90;;;;;;5088235;28;20453;-74
2023/06/02 08:10:09;;;;;;;14.55;3.88;;;14.90;99.90;;;;;;5086406;28;20424;-74
2023/06/02 08:12:35;;;;;;;22.33;5.07;;;14.60;99.90;;;;;;5048661;28;20432;-74
2023/06/02 08:15:02;;;;;;;15.07;4.40;;;14.80;99.90;;;;;;5067650;28;21037;-74
2023/06/02 08:17:31;;;;;;;15.52;3.88;;;14.80;99.90;;;;;;5054789;28;20435;-74
2023/06/02 08:20:01;;;;;;;20.42;4.45;;;15.00;99.90;;;;;;5079529;28;20506;-75
2023/06/02 08:22:28;;;;;;;19.80;5.63;;;14.80;99.90;;;;;;5055116;28;20411;-74
2023/06/02 08:24:54;;;;;;;16.15;3.83;;;14.80;99.90;;;;;;5048823;28;20494;-75
2023/06/02 08:27:21;;;;;;;15.70;4.05;;;15.50;99.90;;;;;;5057121;28;20498;-75
2023/06/02 08:29:49;;;;;;;17.83;4.55;;;15.70;99.90;;;;;;5057686;28;21015;-75
2023/06/02 08:32:19;;;;;;;16.07;4.63;;;15.40;99.90;;;;;;5085459;28;20426;-74
2023/06/02 08:34:47;;;;;;;20.90;4.95;;;15.80;99.90;;;;;;5048227;28;20427;-73
2023/06/02 08:37:19;;;;;;;20.83;4.15;;;15.60;99.90;;;;;;5078389;28;20604;-74
2023/06/02 08:39:47;;;;;;;21.02;4.40;;;16.10;99.90;;;;;;5095190;28;20408;-75
2023/06/02 08:42:14;;;;;;;15.90;3.78;;;16.40;99.90;;;;;;5077472;28;20477;-77
2023/06/02 08:44:41;;;;;;;13.15;3.13;;;16.10;99.90;;;;;;5055838;28;20431;-77
2023/06/02 08:47:11;;;;;;;14.90;4.07;;;16.50;99.90;;;;;;5072826;28;21237;-78
2023/06/02 08:49:47;;;;;;;14.88;3.17;;;16.20;99.90;;;;;;5081443;28;20467;-77
2023/06/02 08:52:22;;;;;;;12.82;3.78;;;16.20;99.90;;;;;;5087421;28;20462;-77
2023/06/02 08:54:49;;;;;;;10.07;2.55;;;16.60;99.90;;;;;;5072855;28;20437;-77
2023/06/02 08:57:20;;;;;;;12.55;4.05;;;17.10;99.90;;;;;;5070693;28;20416;-77
2023/06/02 08:59:46;;;;;;;15.10;3.17;;;17.30;99.90;;;;;;5075214;28;20477;-77
2023/06/02 09:02:12;;;;;;;8.77;2.72;;;17.50;99.90;;;;;;5074453;28;20401;-77
2023/06/02 09:04:38;;;;;;;9.90;2.80;;;17.50;99.90;;;;;;5106673;28;20432;-76
2023/06/02 09:07:13;;;;;;;8.93;2.10;;;17.70;99.90;;;;;;5108805;28;20759;-77
2023/06/02 09:09:40;;;;;;;12.93;3.35;;;17.50;99.90;;;;;;5072383;28;20406;-77
2023/06/02 09:12:08;;;;;;;14.27;3.28;;;17.90;99.90;;;;;;5054809;28;20419;-77
2023/06/02 09:14:34;;;;;;;11.13;3.25;;;18.00;99.90;;;;;;5072465;28;20419;-74
2023/06/02 09:17:00;;;;;;;9.07;2.50;;;18.20;99.90;;;;;;5071523;28;20435;-74
2023/06/02 09:19:26;;;;;;;9.32;2.60;;;18.00;99.90;;;;;;5071056;28;20861;-77
2023/06/02 09:22:04;;;;;;;11.43;2.90;;;17.60;99.90;;;;;;5113367;28;20428;-76
2023/06/02 09:24:32;;;;;;;10.20;2.47;;;18.10;99.90;;;;;;5102476;28;20425;-76
2023/06/02 09:26:58;;;;;;;8.23;2.63;;;18.00;99.90;;;;;;5054720;28;20777;-76
2023/06/02 09:29:24;;;;;;;12.38;3.22;;;18.30;99.90;;;;;;5082023;28;20408;-76
2023/06/02 09:31:55;;;;;;;7.07;2.47;;;18.10;99.90;;;;;;5112309;28;20412;-76
2023/06/02 09:34:22;;;;;;;5.32;1.50;;;17.90;99.90;;;;;;5110668;28;20435;-76
2023/06/02 09:36:53;;;;;;;5.67;1.60;;;18.10;99.90;;;;;;5113422;28;20465;-77
2023/06/02 09:39:35;;;;;;;7.00;1.63;;;17.90;99.90;;;;;;5113174;28;20881;-76
2023/06/02 09:42:02;;;;;;;4.90;1.30;;;18.10;99.90;;;;;;5080417;28;20426;-76
2023/06/02 09:44:27;;;;;;;6.82;1.88;;;18.20;99.90;;;;;;5072329;28;20407;-76
2023/06/02 09:46:53;;;;;;;6.00;1.42;;;18.00;99.90;;;;;;5105294;28;20881;-76
2023/06/02 09:49:19;;;;;;;7.68;1.45;;;17.90;99.90;;;;;;5094939;28;20758;-77
2023/06/02 09:51:45;;;;;;;8.20;1.93;;;17.70;99.90;;;;;;5107647;28;20419;-77
2023/06/02 09:54:11;;;;;;;9.00;1.77;;;18.10;99.90;;;;;;5113241;28;20442;-76
2023/06/02 09:56:38;;;;;;;9.50;1.48;;;18.20;99.90;;;;;;5112667;28;20761;-77
2023/06/02 09:59:07;;;;;;;6.60;1.50;;;18.10;99.90;;;;;;5102654;28;20485;-78
2023/06/02 10:01:34;;;;;;;9.02;2.05;;;18.00;99.90;;;;;;5099945;28;20424;-77
2023/06/02 10:04:02;;;;;;;3.90;1.27;;;18.50;99.90;;;;;;5109521;28;20464;-77
2023/06/02 10:06:55;;;;;;;4.75;1.60;;;18.30;99.90;;;;;;5109270;28;20476;-76
2023/06/02 10:09:40;;;;;;;6.07;1.50;;;18.30;99.90;;;;;;5053818;28;20416;-77
2023/06/02 10:12:43;;;;;;;4.33;1.40;;;18.40;99.90;;;;;;5073312;28;20777;-76
2023/06/02 10:15:15;;;;;;;4.38;1.55;;;18.40;99.90;;;;;;5053434;28;20510;-76
2023/06/02 10:18:06;;;;;;;4.20;1.13;;;18.50;99.90;;;;;;5089896;28;20896;-77
2023/06/02 10:21:19;;;;;;;8.18;1.65;;;18.60;99.90;;;;;;5052212;28;20398;-77
2023/06/02 10:24:07;;;;;;;7.80;1.83;;;18.60;99.90;;;;;;5070663;28;20414;-76
2023/06/02 10:26:36;;;;;;;10.80;2.67;;;18.70;99.90;;;;;;5069134;28;20411;-76
2023/06/02 10:29:04;;;;;;;5.93;1.90;;;18.90;99.90;;;;;;5051235;28;20458;-76
2023/06/02 10:31:33;;;;;;;6.00;1.75;;;18.70;99.90;;;;;;5067207;28;20408;-76
2023/06/02 10:34:00;;;;;;;8.13;2.33;;;18.80;99.90;;;;;;5084872;28;20540;-76
2023/06/02 10:36:27;;;;;;;8.57;2.65;;;18.30;99.90;;;;;;5108824;28;20477;-77
2023/06/02 10:38:55;;;;;;;7.03;1.33;;;18.60;99.90;;;;;;5108799;28;20412;-76
2023/06/02 10:41:59;;;;;;;9.68;1.40;;;19.00;99.90;;;;;;5108592;28;20436;-76
2023/06/02 10:44:25;;;;;;;5.03;1.47;;;18.90;99.90;;;;;;5087237;28;20802;-77
2023/06/02 10:47:19;;;;;;;4.22;1.42;;;18.50;99.90;;;;;;5105748;28;20466;-76
2023/06/02 10:50:05;;;;;;;4.70;1.80;;;18.60;99.90;;;;;;5083763;28;20932;-76
2023/06/02 10:52:33;;;;;;;3.45;1.60;;;18.60;99.90;;;;;;5069958;28;20401;-76
2023/06/02 10:55:08;;;;;;;5.93;1.48;;;18.40;99.90;;;;;;5069904;28;20430;-76
2023/06/02 10:58:01;;;;;;;3.97;1.20;;;18.80;99.90;;;;;;5092193;28;20416;-76
2023/06/02 11:00:32;;;;;;;4.20;1.10;;;18.50;99.90;;;;;;5107225;28;20405;-76
2023/06/02 11:02:58;;;;;;;5.03;1.00;;;18.50;99.90;;;;;;5107144;28;20411;-77
2023/06/02 11:05:26;;;;;;;3.97;0.88;;;18.60;99.90;;;;;;5061933;28;20442;-77
2023/06/02 11:08:13;;;;;;;5.97;1.50;;;18.90;99.90;;;;;;5069173;28;20861;-76
2023/06/02 11:10:54;;;;;;;4.05;1.63;;;19.00;99.90;;;;;;5049457;28;20511;-76
2023/06/02 11:13:21;;;;;;;3.35;1.20;;;19.00;99.30;;;;;;5076458;28;20512;-76
2023/06/02 11:15:53;;;;;;;5.03;1.08;;;19.10;99.90;;;;;;5072304;28;20499;-76
2023/06/02 11:18:22;;;;;;;3.33;1.35;;;18.90;99.90;;;;;;5084524;28;20511;-77
2023/06/02 11:21:16;;;;;;;3.53;0.93;;;19.30;99.90;;;;;;5067671;28;20773;-77
2023/06/02 11:23:42;;;;;;;3.67;1.10;;;18.90;94.30;;;;;;5058001;28;20423;-76
2023/06/02 11:26:11;;;;;;;4.22;1.23;;;19.30;95.50;;;;;;5066371;28;20436;-76
2023/06/02 11:28:36;;;;;;;4.65;1.20;;;19.30;96.90;;;;;;5083402;28;20416;-76
2023/06/02 11:31:12;;;;;;;4.63;1.07;;;19.20;97.10;;;;;;5077528;28;20437;-77
2023/06/02 11:33:42;;;;;;;3.72;1.20;;;19.00;94.80;;;;;;5083704;28;20439;-77
2023/06/02 11:36:15;;;;;;;4.45;1.05;;;19.00;96.10;;;;;;5049710;28;20411;-76
2023/06/02 11:38:41;;;;;;;2.78;1.60;;;19.10;94.10;;;;;;5078173;28;20402;-76
2023/06/02 11:41:18;;;;;;;3.60;1.10;;;19.10;96.30;;;;;;5086829;28;20514;-76
2023/06/02 11:43:50;;;;;;;3.20;1.00;;;18.80;98.30;;;;;;5067535;28;20399;-78
2023/06/02 11:46:18;;;;;;;3.15;1.30;;;18.70;99.90;;;;;;5066121;28;20475;-76
2023/06/02 11:48:45;;;;;;;2.80;1.00;;;18.60;94.90;;;;;;5067451;28;20407;-78
2023/06/02 11:51:13;;;;;;;2.40;0.90;;;18.90;95.30;;;;;;5048972;28;20435;-78
2023/06/02 11:53:44;;;;;;;4.45;1.38;;;18.90;99.10;;;;;;5066246;28;20415;-76
2023/06/02 11:56:14;;;;;;;7.57;1.70;;;19.10;99.90;;;;;;5057304;28;20481;-78
2023/06/02 11:58:42;;;;;;;5.93;1.55;;;18.90;99.90;;;;;;5073353;28;20427;-78
2023/06/02 12:01:14;;;;;;;6.13;1.40;;;19.10;99.90;;;;;;5063509;28;20517;-79
2023/06/02 12:04:03;;;;;;;7.18;1.52;;;18.10;99.90;;;;;;5067381;28;21112;-75
2023/06/02 12:06:30;;;;;;;6.53;1.60;;;18.50;99.90;;;;;;5069277;28;20425;-75
2023/06/02 12:08:56;;;;;;;9.65;2.10;;;18.90;99.90;;;;;;5066402;28;20891;-75
2023/06/02 12:11:23;;;;;;;5.07;2.38;;;18.50;99.90;;;;;;5070928;28;20499;-75
2023/06/02 12:14:01;;;;;;;7.35;1.92;;;18.90;99.90;;;;;;5085921;28;20465;-76
2023/06/02 12:16:27;;;;;;;5.32;2.00;;;19.00;99.90;;;;;;5067426;28;20418;-76
2023/06/02 12:18:55;;;;;;;5.88;1.83;;;19.20;99.90;;;;;;5078043;28;20405;-76
2023/06/02 12:21:22;;;;;;;4.40;1.45;;;19.00;99.90;;;;;;5086343;28;20441;-75
2023/06/02 12:23:47;;;;;;;4.53;1.40;;;19.00;99.90;;;;;;5083273;28;20419;-76
2023/06/02 12:26:14;;;;;;;5.50;1.30;;;19.30;99.90;;;;;;5069987;28;20830;-76
2023/06/02 12:28:40;;;;;;;7.15;1.73;;;19.70;99.90;;;;;;5067897;28;20461;-77
2023/06/02 12:31:05;;;;;;;7.10;1.40;;;19.10;99.90;;;;;;5067353;28;20429;-78
2023/06/02 12:33:31;;;;;;;5.57;1.57;;;19.10;99.90;;;;;;5085353;28;20430;-78
2023/06/02 12:35:57;;;;;;;5.28;1.42;;;18.90;99.90;;;;;;5086368;28;20793;-77
2023/06/02 12:38:23;;;;;;;7.65;2.10;;;19.20;99.90;;;;;;5068298;28;20465;-77
2023/06/02 12:40:50;;;;;;;3.67;1.52;;;19.10;99.90;;;;;;5077405;28;20423;-77
2023/06/02 12:43:20;;;;;;;7.38;1.80;;;19.30;99.90;;;;;;5067794;28;21124;-78
2023/06/02 12:45:50;;;;;;;5.50;2.00;;;19.30;99.90;;;;;;5053516;28;20473;-77